Time;durP1;ratioP1;P1;durP2;ratioP2;P2;SDS_P1;SDS_P2;PMS_P1;PMS_P2;Temp;Humidity;BMP_temperature;BMP_pressure;BME280_temperature;BME280_humidity;BME280_pressure;Samples;Min_cycle;Max_cycle;Signal;HPM_P1;HPM_P2
2022/09/23 00:01:14;;;;;;;;;;;13.40;99.00;;;;;;5087277;28;20061;-79
2022/09/23 00:03:40;;;;;;;;;;;13.40;99.10;;;;;;5086804;28;20019;-79
2022/09/23 00:06:09;;;;;;;;;;;13.40;99.40;;;;;;5086872;28;19951;-79
2022/09/23 00:08:35;;;;;;;;;;;13.30;99.80;;;;;;5085089;28;19992;-79
2022/09/23 00:11:27;;;;;;;;;;;13.20;99.90;;;;;;5087830;28;19920;-79
2022/09/23 00:13:54;;;;;;;;;;;13.20;99.90;;;;;;5085374;28;20002;-79
2022/09/23 00:16:22;;;;;;;;;;;13.20;99.90;;;;;;5085395;28;20032;-79
2022/09/23 00:18:50;;;;;;;;;;;13.20;99.90;;;;;;5085541;28;19939;-79
2022/09/23 00:21:16;;;;;;;;;;;13.10;99.90;;;;;;5087341;28;19965;-79
2022/09/23 00:23:42;;;;;;;;;;;13.00;99.90;;;;;;5079909;28;20027;-79
2022/09/23 00:26:09;;;;;;;;;;;13.00;99.90;;;;;;5086698;28;20448;-78
2022/09/23 00:28:35;;;;;;;;;;;13.00;99.90;;;;;;5086895;28;19920;-79
2022/09/23 00:31:04;;;;;;;;;;;13.10;99.90;;;;;;5086771;28;20345;-79
2022/09/23 00:33:30;;;;;;;;;;;13.00;99.90;;;;;;5079301;28;19945;-79
2022/09/23 00:35:59;;;;;;;;;;;13.00;99.90;;;;;;5084903;28;19924;-78
2022/09/23 00:38:24;;;;;;;;;;;13.00;99.90;;;;;;5085442;28;20390;-78
2022/09/23 00:40:50;;;;;;;;;;;13.00;99.90;;;;;;5086772;28;19946;-78
2022/09/23 00:43:16;;;;;;;;;;;13.00;99.90;;;;;;5086368;28;19993;-79
2022/09/23 00:45:45;;;;;;;;;;;12.90;99.90;;;;;;5086541;28;20447;-78
2022/09/23 00:48:13;;;;;;;;;;;12.90;99.90;;;;;;5086272;28;19920;-78
2022/09/23 00:50:41;;;;;;;;;;;12.80;99.90;;;;;;5084762;28;19959;-78
2022/09/23 00:53:09;;;;;;;;;;;12.70;99.90;;;;;;5086549;28;19920;-79
2022/09/23 00:55:41;;;;;;;;;;;12.70;99.90;;;;;;5086664;28;19924;-78
2022/09/23 00:58:09;;;;;;;;;;;12.60;99.90;;;;;;5085997;28;19985;-78
2022/09/23 01:00:35;;;;;;;;;;;12.60;99.90;;;;;;5086323;28;19924;-78
2022/09/23 01:03:03;;;;;;;;;;;12.50;99.90;;;;;;5085915;28;19947;-79
2022/09/23 01:05:30;;;;;;;;;;;12.50;99.90;;;;;;5086793;28;19923;-79
2022/09/23 01:07:56;;;;;;;;;;;12.50;99.90;;;;;;5073977;28;19971;-79
2022/09/23 01:10:22;;;;;;;;;;;12.50;99.90;;;;;;5079437;28;20315;-78
2022/09/23 01:12:48;;;;;;;;;;;12.50;99.90;;;;;;5076756;28;19995;-79
2022/09/23 01:15:32;;;;;;;;;;;12.50;99.90;;;;;;5086169;28;20019;-79
2022/09/23 01:18:00;;;;;;;;;;;12.60;99.90;;;;;;5085704;28;20392;-79
2022/09/23 01:20:44;;;;;;;;;;;12.50;99.90;;;;;;5086436;28;19916;-78
2022/09/23 01:23:33;;;;;;;;;;;12.50;99.90;;;;;;5073752;28;19951;-77
2022/09/23 01:26:02;;;;;;;;;;;12.50;99.90;;;;;;5077014;28;19923;-78
2022/09/23 01:28:34;;;;;;;;;;;12.40;99.90;;;;;;5085406;28;20034;-79
2022/09/23 01:31:04;;;;;;;;;;;12.40;99.90;;;;;;5086447;28;20285;-78
2022/09/23 01:33:29;;;;;;;;;;;12.40;99.90;;;;;;5077769;28;19923;-79
2022/09/23 01:36:04;;;;;;;;;;;12.40;99.90;;;;;;5084362;28;19924;-79
2022/09/23 01:38:50;;;;;;;;;;;12.30;99.90;;;;;;5084667;28;19923;-79
2022/09/23 01:41:31;;;;;;;;;;;12.20;99.90;;;;;;5086207;28;19916;-79
2022/09/23 01:43:56;;;;;;;;;;;12.20;99.90;;;;;;5085338;28;19989;-80
2022/09/23 01:46:27;;;;;;;;;;;12.20;99.90;;;;;;5085475;28;20657;-79
2022/09/23 01:49:05;;;;;;;;;;;12.20;99.90;;;;;;5086396;28;19911;-78
2022/09/23 01:51:36;;;;;;;;;;;12.10;99.90;;;;;;5060574;28;19920;-79
2022/09/23 01:54:08;;;;;;;;;;;12.10;99.90;;;;;;5076638;28;19923;-79
2022/09/23 01:56:52;;;;;;;;;;;12.00;99.90;;;;;;5080882;28;20315;-79
2022/09/23 01:59:34;;;;;;;;;;;12.00;99.90;;;;;;5080904;28;19920;-79
2022/09/23 02:02:06;;;;;;;;;;;11.90;99.90;;;;;;5082743;28;19928;-79
2022/09/23 02:04:38;;;;;;;;;;;11.90;99.90;;;;;;5084951;28;19958;-78
2022/09/23 02:07:08;;;;;;;;;;;11.90;99.90;;;;;;5079481;28;20302;-79
2022/09/23 02:09:36;;;;;;;;;;;11.90;99.90;;;;;;5065391;28;20405;-78
2022/09/23 02:12:04;;;;;;;;;;;11.90;99.90;;;;;;5081702;28;20014;-79
2022/09/23 02:14:42;;;;;;;;;;;11.90;99.90;;;;;;5082892;28;19993;-79
2022/09/23 02:17:09;;;;;;;;;;;11.90;99.90;;;;;;5082290;28;19924;-78
2022/09/23 02:19:46;;;;;;;;;;;11.70;99.90;;;;;;5083363;28;19920;-78
2022/09/23 02:22:19;;;;;;;;;;;11.70;99.90;;;;;;5081212;28;20451;-78
2022/09/23 02:24:44;;;;;;;;;;;11.70;99.90;;;;;;5076426;28;19985;-79
2022/09/23 02:27:22;;;;;;;;;;;11.70;99.90;;;;;;5082936;28;20404;-79
2022/09/23 02:30:02;;;;;;;;;;;11.60;99.90;;;;;;5083951;28;20300;-79
2022/09/23 02:32:33;;;;;;;;;;;11.70;99.90;;;;;;5078626;28;19957;-78
2022/09/23 02:35:12;;;;;;;;;;;11.60;99.90;;;;;;5082110;28;19926;-79
2022/09/23 02:37:43;;;;;;;;;;;11.60;99.90;;;;;;5082833;28;19920;-79
2022/09/23 02:40:15;;;;;;;;;;;11.60;99.90;;;;;;5083980;28;19920;-78
2022/09/23 02:42:40;;;;;;;;;;;11.50;99.90;;;;;;5083534;28;19916;-78
2022/09/23 02:45:06;;;;;;;;;;;11.50;99.90;;;;;;5083814;28;20005;-79
2022/09/23 02:47:33;;;;;;;;;;;11.50;99.90;;;;;;5084658;28;20391;-79
2022/09/23 02:49:59;;;;;;;;;;;11.50;99.90;;;;;;5084405;28;19923;-79
2022/09/23 02:52:25;;;;;;;;;;;11.50;99.90;;;;;;5083620;28;19915;-79
2022/09/23 02:54:51;;;;;;;;;;;11.50;99.90;;;;;;5083793;28;19946;-78
2022/09/23 02:57:16;;;;;;;;;;;11.50;99.90;;;;;;5083907;28;20033;-78
2022/09/23 02:59:42;;;;;;;;;;;11.50;99.90;;;;;;5079448;28;20025;-78
2022/09/23 03:02:08;;;;;;;;;;;11.50;99.90;;;;;;5083520;28;20301;-79
2022/09/23 03:04:42;;;;;;;;;;;11.50;99.90;;;;;;5082389;28;19916;-79
2022/09/23 03:07:19;;;;;;;;;;;11.60;99.90;;;;;;5080452;28;19916;-78
2022/09/23 03:09:48;;;;;;;;;;;11.60;99.90;;;;;;5083601;28;19916;-79
2022/09/23 03:12:17;;;;;;;;;;;11.60;99.90;;;;;;5083609;28;19924;-79
2022/09/23 03:14:50;;;;;;;;;;;11.60;99.90;;;;;;5083687;28;19924;-79
2022/09/23 03:17:24;;;;;;;;;;;11.70;99.90;;;;;;5073747;28;20010;-78
2022/09/23 03:19:52;;;;;;;;;;;11.60;99.90;;;;;;5082585;28;19977;-79
2022/09/23 03:22:21;;;;;;;;;;;11.50;99.90;;;;;;5083417;28;19916;-79
2022/09/23 03:24:48;;;;;;;;;;;11.50;99.90;;;;;;5083865;28;19908;-78
2022/09/23 03:27:16;;;;;;;;;;;11.50;99.90;;;;;;5082857;28;19916;-78
2022/09/23 03:29:44;;;;;;;;;;;11.40;99.90;;;;;;5083972;28;19912;-78
2022/09/23 03:32:10;;;;;;;;;;;11.40;99.90;;;;;;5082761;28;20412;-78
2022/09/23 03:34:38;;;;;;;;;;;11.40;99.90;;;;;;5083499;28;19916;-79
2022/09/23 03:37:09;;;;;;;;;;;11.30;99.90;;;;;;5082836;28;19951;-78
2022/09/23 03:39:43;;;;;;;;;;;11.20;99.90;;;;;;5083196;28;19993;-79
2022/09/23 03:42:14;;;;;;;;;;;11.20;99.90;;;;;;5072183;28;19916;-78
2022/09/23 03:44:42;;;;;;;;;;;11.20;99.90;;;;;;5083105;28;20312;-78
2022/09/23 03:47:07;;;;;;;;;;;11.10;99.90;;;;;;5082739;28;20054;-78
2022/09/23 03:49:38;;;;;;;;;;;11.10;99.90;;;;;;5082039;28;20002;-79
2022/09/23 03:52:03;;;;;;;;;;;11.10;99.90;;;;;;5083215;28;19916;-79
2022/09/23 03:54:29;;;;;;;;;;;11.00;99.90;;;;;;5083141;28;19916;-79
2022/09/23 03:56:58;;;;;;;;;;;11.10;99.90;;;;;;5080979;28;19924;-80
2022/09/23 03:59:24;;;;;;;;;;;11.10;99.90;;;;;;5075374;28;19916;-78
2022/09/23 04:01:50;;;;;;;;;;;11.00;99.90;;;;;;5082684;28;19970;-79
2022/09/23 04:04:16;;;;;;;;;;;11.10;99.90;;;;;;5081521;28;20018;-78
2022/09/23 04:06:41;;;;;;;;;;;11.20;99.90;;;;;;5081177;28;19912;-78
2022/09/23 04:09:07;;;;;;;;;;;11.10;99.90;;;;;;5080904;28;19916;-79
2022/09/23 04:11:32;;;;;;;;;;;11.20;99.90;;;;;;5082704;28;19916;-78
2022/09/23 04:13:58;;;;;;;;;;;11.20;99.90;;;;;;5082745;28;19916;-78
2022/09/23 04:16:24;;;;;;;;;;;11.20;99.90;;;;;;5082365;28;19958;-79
2022/09/23 04:18:49;;;;;;;;;;;11.20;99.90;;;;;;5081157;28;19923;-78
2022/09/23 04:21:15;;;;;;;;;;;11.10;99.90;;;;;;5080872;28;19924;-78
2022/09/23 04:23:40;;;;;;;;;;;11.10;99.90;;;;;;5081797;28;19951;-78
2022/09/23 04:26:06;;;;;;;;;;;11.10;99.90;;;;;;5082175;28;19920;-79
2022/09/23 04:28:32;;;;;;;;;;;11.10;99.90;;;;;;5082991;28;19919;-78
2022/09/23 04:30:57;;;;;;;;;;;11.10;99.90;;;;;;5081838;28;19923;-78
2022/09/23 04:33:23;;;;;;;;;;;11.10;99.90;;;;;;5082518;28;19916;-79
2022/09/23 04:35:50;;;;;;;;;;;11.00;99.90;;;;;;5082851;28;19973;-79
2022/09/23 04:38:16;;;;;;;;;;;11.00;99.90;;;;;;5083663;28;19936;-78
2022/09/23 04:40:42;;;;;;;;;;;11.00;99.90;;;;;;5082803;28;20870;-78
2022/09/23 04:43:08;;;;;;;;;;;11.10;99.90;;;;;;5081490;28;20019;-77
2022/09/23 04:45:34;;;;;;;;;;;11.00;99.90;;;;;;5115966;27;19916;-78
2022/09/23 04:48:00;;;;;;;;;;;11.00;99.90;;;;;;5086742;28;20459;-78
2022/09/23 04:50:25;;;;;;;;;;;11.00;99.90;;;;;;5086805;28;20380;-78
2022/09/23 04:52:51;;;;;;;;;;;11.00;99.90;;;;;;5087101;28;19970;-79
2022/09/23 04:55:17;;;;;;;;;;;10.90;99.90;;;;;;5086691;28;20704;-78
2022/09/23 04:57:43;;;;;;;;;;;11.00;99.90;;;;;;5086154;28;19919;-78
2022/09/23 05:00:11;;;;;;;;;;;11.00;99.90;;;;;;5067591;28;19912;-79
2022/09/23 05:02:46;;;;;;;;;;;11.00;99.90;;;;;;5058311;28;19932;-78
2022/09/23 05:05:12;;;;;;;;;;;11.00;99.90;;;;;;5045813;28;19912;-78
2022/09/23 05:07:38;;;;;;;;;;;11.00;99.90;;;;;;5044713;28;20439;-78
2022/09/23 05:10:04;;;;;;;;;;;11.00;99.90;;;;;;5048851;28;19916;-78
2022/09/23 05:12:30;;;;;;;;;;;10.90;99.90;;;;;;5027721;28;19924;-78
2022/09/23 05:14:55;;;;;;;;;;;10.90;99.90;;;;;;5045967;28;19917;-78
2022/09/23 05:17:21;;;;;;;;;;;10.90;99.90;;;;;;5045421;28;20012;-78
2022/09/23 05:19:46;;;;;;;;;;;10.80;99.90;;;;;;5045809;28;19909;-77
2022/09/23 05:22:12;;;;;;;;;;;10.80;99.90;;;;;;5045408;28;19959;-79
2022/09/23 05:24:37;;;;;;;;;;;10.70;99.90;;;;;;5057425;28;19916;-78
2022/09/23 05:27:06;;;;;;;;;;;10.80;99.90;;;;;;5048216;28;19948;-78
2022/09/23 05:29:32;;;;;;;;;;;10.60;99.90;;;;;;5046043;28;20012;-78
2022/09/23 05:31:57;;;;;;;;;;;10.70;99.90;;;;;;5045870;28;19920;-79
2022/09/23 05:34:23;;;;;;;;;;;10.80;99.90;;;;;;5063883;28;19912;-82
2022/09/23 05:36:49;;;;;;;;;;;10.80;99.90;;;;;;5066150;28;20362;-74
2022/09/23 05:39:14;;;;;;;;;;;10.50;99.90;;;;;;5066300;28;19912;-74
2022/09/23 05:41:42;;;;;;;;;;;10.50;99.90;;;;;;5063140;28;19956;-74
2022/09/23 05:44:07;;;;;;;;;;;10.70;99.90;;;;;;5066254;28;20019;-74
2022/09/23 05:46:33;;;;;;;;;;;10.70;99.90;;;;;;5066179;28;20059;-74
2022/09/23 05:48:59;;;;;;;;;;;10.70;99.90;;;;;;5065760;28;19958;-74
2022/09/23 05:51:25;;;;;;;;;;;10.70;99.90;;;;;;5065794;28;20048;-74
2022/09/23 05:53:51;;;;;;;;;;;10.70;99.90;;;;;;5065761;28;19923;-74
2022/09/23 05:56:18;;;;;;;;;;;10.60;99.90;;;;;;5065318;28;19924;-73
2022/09/23 05:58:44;;;;;;;;;;;10.60;99.90;;;;;;5057785;28;20813;-75
2022/09/23 06:01:09;;;;;;;;;;;10.80;99.90;;;;;;5056008;28;19927;-74
2022/09/23 06:03:35;;;;;;;;;;;11.00;99.90;;;;;;5065526;28;20015;-75
2022/09/23 06:06:00;;;;;;;;;;;10.90;99.90;;;;;;5065431;28;20174;-75
2022/09/23 06:08:26;;;;;;;;;;;10.80;99.90;;;;;;5073414;28;19916;-74
2022/09/23 06:10:52;;;;;;;;;;;10.90;99.90;;;;;;5083878;28;19912;-74
2022/09/23 06:13:17;;;;;;;;;;;10.90;99.90;;;;;;5085083;28;19916;-74
2022/09/23 06:15:43;;;;;;;;;;;11.10;99.90;;;;;;5085706;28;20304;-74
2022/09/23 06:18:09;;;;;;;;;;;11.20;99.90;;;;;;5085659;28;19919;-74
2022/09/23 06:20:34;;;;;;;;;;;11.60;99.90;;;;;;5082463;28;20756;-75
2022/09/23 06:23:07;;;;;;;;;;;11.70;99.90;;;;;;5074472;28;19942;-73
2022/09/23 06:25:34;;;;;;;;;;;12.20;99.90;;;;;;5065372;28;20003;-74
2022/09/23 06:27:59;;;;;;;;;;;12.40;99.90;;;;;;5076822;28;20011;-74
2022/09/23 06:30:25;;;;;;;;;;;12.50;99.90;;;;;;5083810;28;20006;-74
2022/09/23 06:32:51;;;;;;;;;;;12.70;99.90;;;;;;5083698;28;20507;-74
2022/09/23 06:35:18;;;;;;;;;;;12.50;99.90;;;;;;5084286;28;19920;-75
2022/09/23 06:37:43;;;;;;;;;;;12.00;99.90;;;;;;5085045;28;20288;-75
2022/09/23 06:40:09;;;;;;;;;;;12.10;99.90;;;;;;5085869;28;19912;-75
2022/09/23 06:42:34;;;;;;;;;;;12.40;99.90;;;;;;5080635;28;20659;-74
2022/09/23 06:45:00;;;;;;;;;;;13.30;99.90;;;;;;5083959;28;19923;-78
2022/09/23 06:47:26;;;;;;;;;;;13.80;99.90;;;;;;5082614;28;20403;-78
2022/09/23 06:49:52;;;;;;;;;;;14.50;99.90;;;;;;5084275;28;20015;-77
2022/09/23 06:52:19;;;;;;;;;;;15.90;98.70;;;;;;5084005;28;20029;-77
2022/09/23 06:54:46;;;;;;;;;;;16.70;96.30;;;;;;5084406;28;19912;-78
2022/09/23 06:57:13;;;;;;;;;;;16.90;95.70;;;;;;5081777;28;19920;-79
2022/09/23 06:59:38;;;;;;;;;;;15.80;99.10;;;;;;5073343;28;19951;-77
2022/09/23 07:02:04;;;;;;;;;;;16.00;97.90;;;;;;5084209;28;20008;-76
2022/09/23 07:04:29;;;;;;;;;;;15.30;98.50;;;;;;5073073;28;19970;-78
2022/09/23 07:06:56;;;;;;;;;;;15.00;98.60;;;;;;5062822;28;19913;-78
2022/09/23 07:09:21;;;;;;;;;;;15.40;98.80;;;;;;5064398;28;20418;-76
2022/09/23 07:11:47;;;;;;;;;;;15.80;97.40;;;;;;5069241;28;19924;-78
2022/09/23 07:14:13;;;;;;;;;;;16.00;96.60;;;;;;5083445;28;19916;-78
2022/09/23 07:16:38;;;;;;;;;;;15.00;97.50;;;;;;5071947;28;19921;-78
2022/09/23 07:19:04;;;;;;;;;;;15.70;97.00;;;;;;5063900;28;19913;-78
2022/09/23 07:21:30;;;;;;;;;;;15.30;96.80;;;;;;5063701;28;19912;-78
2022/09/23 07:23:57;;;;;;;;;;;15.00;97.50;;;;;;5081778;28;20353;-77
2022/09/23 07:26:23;;;;;;;;;;;15.10;97.70;;;;;;5084071;28;19912;-78
2022/09/23 07:28:53;;;;;;;;;;;14.90;98.10;;;;;;5079369;28;20362;-78
2022/09/23 07:31:18;;;;;;;;;;;14.80;98.90;;;;;;5075364;28;19912;-77
2022/09/23 07:33:44;;;;;;;;;;;15.00;98.40;;;;;;5083709;28;19951;-77
2022/09/23 07:36:16;;;;;;;;;;;15.50;97.80;;;;;;5064189;28;20373;-78
2022/09/23 07:38:41;;;;;;;;;;;15.80;96.60;;;;;;5063683;28;19916;-76
2022/09/23 07:41:09;;;;;;;;;;;15.70;96.90;;;;;;5062483;28;19912;-77
2022/09/23 07:43:34;;;;;;;;;;;15.90;95.60;;;;;;5071632;28;19924;-77
2022/09/23 07:46:01;;;;;;;;;;;16.30;94.80;;;;;;5084439;28;19912;-77
2022/09/23 07:48:28;;;;;;;;;;;16.80;94.00;;;;;;5081788;28;19917;-78
2022/09/23 07:50:54;;;;;;;;;;;16.90;94.10;;;;;;5082805;28;19920;-79
2022/09/23 07:53:19;;;;;;;;;;;17.10;93.00;;;;;;5063833;28;19997;-78
2022/09/23 07:55:50;;;;;;;;;;;16.60;94.10;;;;;;5062068;28;19920;-78
2022/09/23 07:58:16;;;;;;;;;;;16.80;94.30;;;;;;5063562;28;19916;-78
2022/09/23 08:00:41;;;;;;;;;;;17.50;93.40;;;;;;5078921;28;19930;-78
2022/09/23 08:03:08;;;;;;;;;;;18.10;93.00;;;;;;5083145;28;19927;-78
2022/09/23 08:05:35;;;;;;;;;;;18.70;91.20;;;;;;5083676;28;19959;-78
2022/09/23 08:08:01;;;;;;;;;;;17.60;92.20;;;;;;5068327;28;20741;-78
2022/09/23 08:10:26;;;;;;;;;;;16.80;93.60;;;;;;5064033;28;20011;-77
2022/09/23 08:12:52;;;;;;;;;;;16.50;94.20;;;;;;5063671;28;19973;-77
2022/09/23 08:15:17;;;;;;;;;;;16.40;94.70;;;;;;5063972;28;19925;-78
2022/09/23 08:17:43;;;;;;;;;;;16.30;94.80;;;;;;5071696;28;19916;-78
2022/09/23 08:20:42;;;;;;;;;;;16.90;94.00;;;;;;5087612;28;19916;-79
2022/09/23 08:22:55;;;;;;;;;;;17.60;92.90;;;;;;5075609;28;20511;-78
2022/09/23 08:25:22;;;;;;;;;;;17.90;92.00;;;;;;5067655;28;19913;-78
2022/09/23 08:27:48;;;;;;;;;;;18.40;91.40;;;;;;5067504;28;19916;-78
2022/09/23 08:30:13;;;;;;;;;;;18.50;91.70;;;;;;5067114;28;19912;-78
2022/09/23 08:32:39;;;;;;;;;;;19.00;89.50;;;;;;5067005;28;20396;-78
2022/09/23 08:35:05;;;;;;;;;;;19.40;89.00;;;;;;5067072;28;19917;-78
2022/09/23 08:37:30;;;;;;;;;;;20.40;86.10;;;;;;5067463;28;19916;-78
2022/09/23 08:39:56;;;;;;;;;;;21.70;81.90;;;;;;5067346;28;19912;-78
2022/09/23 08:42:27;;;;;;;;;;;22.20;79.10;;;;;;5067290;28;19909;-78
2022/09/23 08:44:56;;;;;;;;;;;22.20;80.10;;;;;;5067221;28;19965;-78
2022/09/23 08:47:27;;;;;;;;;;;21.70;79.90;;;;;;5066852;28;20575;-78
2022/09/23 08:50:05;;;;;;;;;;;20.30;82.60;;;;;;5066697;28;19913;-78
2022/09/23 08:52:30;;;;;;;;;;;19.60;84.80;;;;;;5066623;28;20117;-78
2022/09/23 08:54:56;;;;;;;;;;;19.80;86.20;;;;;;5066668;28;20018;-78
2022/09/23 08:57:27;;;;;;;;;;;19.10;86.50;;;;;;5066753;28;19921;-77
2022/09/23 08:59:53;;;;;;;;;;;18.70;88.30;;;;;;5067795;28;19919;-77
2022/09/23 09:02:20;;;;;;;;;;;18.80;88.50;;;;;;5083847;28;19924;-78
2022/09/23 09:04:51;;;;;;;;;;;20.40;87.20;;;;;;5076894;28;19912;-78
2022/09/23 09:07:37;;;;;;;;;;;21.60;81.40;;;;;;5080086;28;20682;-77
2022/09/23 09:10:05;;;;;;;;;;;22.00;80.10;;;;;;5082081;28;19974;-78
2022/09/23 09:12:36;;;;;;;;;;;22.90;79.80;;;;;;5085050;28;19939;-78
2022/09/23 09:15:06;;;;;;;;;;;23.20;78.70;;;;;;5076494;28;20024;-78
2022/09/23 09:17:45;;;;;;;;;;;22.40;78.40;;;;;;5085756;28;19916;-78
2022/09/23 09:20:16;;;;;;;;;;;22.70;77.20;;;;;;5069951;28;19912;-78
2022/09/23 09:22:47;;;;;;;;;;;22.70;77.80;;;;;;5066221;28;20392;-79
2022/09/23 09:25:32;;;;;;;;;;;21.60;77.80;;;;;;5072573;28;20397;-77
2022/09/23 09:27:58;;;;;;;;;;;21.60;78.70;;;;;;5082039;28;19920;-78
2022/09/23 09:30:24;;;;;;;;;;;22.80;78.60;;;;;;5085128;28;19916;-78
2022/09/23 09:33:01;;;;;;;;;;;23.50;75.70;;;;;;5086535;28;19912;-78
2022/09/23 09:35:36;;;;;;;;;;;23.90;75.40;;;;;;5083146;28;19942;-79
2022/09/23 09:38:02;;;;;;;;;;;23.70;71.40;;;;;;5109336;27;19916;-78
2022/09/23 09:40:28;;;;;;;;;;;23.00;74.50;;;;;;5068980;28;20464;-78
2022/09/23 09:42:53;;;;;;;;;;;22.70;74.70;;;;;;5068058;28;19999;-78
2022/09/23 09:45:34;;;;;;;;;;;22.80;74.40;;;;;;5077676;28;19916;-79
2022/09/23 09:48:12;;;;;;;;;;;23.00;75.50;;;;;;5066320;28;19952;-78
2022/09/23 09:50:48;;;;;;;;;;;22.30;76.00;;;;;;5074430;28;19916;-79
2022/09/23 09:53:15;;;;;;;;;;;22.20;76.90;;;;;;5086172;28;19918;-80
2022/09/23 09:55:41;;;;;;;;;;;22.10;77.10;;;;;;5086155;28;19966;-79
2022/09/23 09:58:12;;;;;;;;;;;22.30;76.40;;;;;;5083821;28;19934;-79
2022/09/23 10:00:42;;;;;;;;;;;22.50;76.80;;;;;;5065913;28;20813;-79
2022/09/23 10:03:13;;;;;;;;;;;22.60;75.50;;;;;;5058302;28;20019;-79
2022/09/23 10:05:44;;;;;;;;;;;23.00;75.60;;;;;;5065815;28;19924;-79
2022/09/23 10:08:24;;;;;;;;;;;23.00;75.40;;;;;;5054760;28;19924;-80
2022/09/23 10:10:54;;;;;;;;;;;22.40;73.80;;;;;;5047728;28;19916;-78
2022/09/23 10:13:20;;;;;;;;;;;22.40;74.40;;;;;;5064884;28;20286;-80
2022/09/23 10:15:45;;;;;;;;;;;22.50;73.20;;;;;;5065414;28;20012;-79
2022/09/23 10:18:18;;;;;;;;;;;22.30;73.00;;;;;;5065168;28;20007;-79
2022/09/23 10:20:45;;;;;;;;;;;22.70;74.60;;;;;;5065119;28;19916;-79
2022/09/23 10:23:15;;;;;;;;;;;22.60;74.10;;;;;;5054954;28;19916;-79
2022/09/23 10:25:41;;;;;;;;;;;23.00;72.60;;;;;;5065066;28;19916;-79
2022/09/23 10:28:29;;;;;;;;;;;23.40;71.30;;;;;;5064654;28;19912;-79
2022/09/23 10:31:09;;;;;;;;;;;22.90;72.00;;;;;;5065229;28;19918;-79
2022/09/23 10:33:45;;;;;;;;;;;22.40;72.60;;;;;;5065653;28;20143;-79
2022/09/23 10:36:13;;;;;;;;;;;22.60;74.00;;;;;;5062591;28;19928;-79
2022/09/23 10:38:38;;;;;;;;;;;22.90;72.20;;;;;;5056567;28;19924;-79
2022/09/23 10:46:44;;;;;;;;;;;23.30;73.10;;;;;;5024860;28;19981;-78
2022/09/23 10:49:22;;;;;;;;;;;23.20;71.80;;;;;;5034641;28;20346;-79
2022/09/23 10:51:57;;;;;;;;;;;23.20;72.50;;;;;;5044873;28;19912;-76
2022/09/23 10:54:39;;;;;;;;;;;23.20;72.30;;;;;;5044978;28;19912;-79
2022/09/23 10:57:37;;;;;;;;;;;23.40;70.30;;;;;;5044599;28;19928;-79
2022/09/23 11:00:24;;;;;;;;;;;23.50;71.20;;;;;;5046057;28;19921;-79
2022/09/23 11:03:01;;;;;;;;;;;23.40;71.00;;;;;;5084466;28;19920;-78
2022/09/23 11:05:34;;;;;;;;;;;23.90;70.10;;;;;;5068952;28;19916;-79
2022/09/23 11:08:06;;;;;;;;;;;23.80;71.00;;;;;;5054428;28;20731;-78
2022/09/23 11:10:42;;;;;;;;;;;23.70;71.40;;;;;;5084925;28;20288;-78
2022/09/23 11:13:28;;;;;;;;;;;23.50;71.10;;;;;;5070625;28;19923;-79
2022/09/23 11:16:09;;;;;;;;;;;23.40;71.50;;;;;;5031598;28;19933;-79
2022/09/23 11:18:46;;;;;;;;;;;23.30;70.40;;;;;;5035675;28;19917;-79
2022/09/23 11:21:24;;;;;;;;;;;23.10;69.40;;;;;;5041010;28;20444;-78
2022/09/23 11:23:49;;;;;;;;;;;23.10;69.30;;;;;;5023410;28;19913;-79
2022/09/23 11:26:16;;;;;;;;;;;23.30;70.20;;;;;;5022352;28;19966;-79
2022/09/23 11:28:50;;;;;;;;;;;23.40;70.70;;;;;;5026884;28;19923;-79
2022/09/23 11:31:24;;;;;;;;;;;23.50;70.10;;;;;;5031775;28;20008;-79
2022/09/23 11:33:51;;;;;;;;;;;23.40;70.20;;;;;;5034312;28;19913;-79
2022/09/23 11:36:19;;;;;;;;;;;23.30;69.40;;;;;;5029891;28;20031;-79
2022/09/23 11:38:47;;;;;;;;;;;23.10;68.70;;;;;;5036393;28;19916;-80
2022/09/23 11:41:16;;;;;;;;;;;23.30;68.60;;;;;;5028145;28;20408;-79
2022/09/23 11:43:42;;;;;;;;;;;23.70;69.30;;;;;;5032805;28;19912;-79
2022/09/23 11:46:08;;;;;;;;;;;23.90;69.10;;;;;;5028169;28;20535;-78
2022/09/23 11:48:46;;;;;;;;;;;23.90;68.20;;;;;;5021067;28;19971;-79
2022/09/23 11:51:25;;;;;;;;;;;23.60;70.40;;;;;;5026430;28;20011;-79
2022/09/23 11:53:58;;;;;;;;;;;23.60;71.70;;;;;;5076558;28;19916;-78
2022/09/23 11:56:27;;;;;;;;;;;23.40;70.10;;;;;;5068261;28;19924;-80
2022/09/23 11:59:02;;;;;;;;;;;23.40;70.10;;;;;;5064514;28;19923;-79
2022/09/23 12:01:34;;;;;;;;;;;23.30;69.00;;;;;;5076044;28;19962;-80
2022/09/23 12:03:59;;;;;;;;;;;23.20;70.10;;;;;;5072843;28;19916;-79
2022/09/23 12:06:43;;;;;;;;;;;22.90;70.50;;;;;;5076705;28;19940;-77
2022/09/23 12:09:18;;;;;;;;;;;22.60;72.80;;;;;;5067146;28;20400;-80
2022/09/23 12:11:57;;;;;;;;;;;22.60;72.20;;;;;;5083424;28;19912;-80
2022/09/23 12:14:31;;;;;;;;;;;22.70;71.30;;;;;;5083872;28;19912;-79
2022/09/23 12:17:06;;;;;;;;;;;22.50;74.50;;;;;;5082619;28;20459;-78
2022/09/23 12:19:47;;;;;;;;;;;22.40;73.90;;;;;;5084062;28;19915;-79
2022/09/23 12:22:23;;;;;;;;;;;22.40;73.80;;;;;;5080023;28;19944;-80
2022/09/23 12:24:49;;;;;;;;;;;22.50;74.30;;;;;;5063719;28;19919;-79
2022/09/23 12:27:22;;;;;;;;;;;22.50;75.20;;;;;;5063633;28;20401;-79
2022/09/23 12:29:58;;;;;;;;;;;22.50;74.30;;;;;;5063885;28;20004;-78
2022/09/23 12:32:24;;;;;;;;;;;22.50;73.60;;;;;;5063909;28;19912;-79
2022/09/23 12:34:50;;;;;;;;;;;22.60;73.50;;;;;;5064103;28;19913;-79
2022/09/23 12:37:24;;;;;;;;;;;22.80;74.40;;;;;;5062506;28;19955;-79
2022/09/23 12:39:49;;;;;;;;;;;23.00;74.50;;;;;;5064033;28;20347;-80
2022/09/23 12:42:17;;;;;;;;;;;23.20;75.10;;;;;;5063900;28;19912;-79
2022/09/23 12:44:44;;;;;;;;;;;23.40;73.50;;;;;;5063951;28;19916;-79
2022/09/23 12:47:24;;;;;;;;;;;23.60;72.70;;;;;;5063752;28;19912;-80
2022/09/23 12:49:51;;;;;;;;;;;23.60;72.30;;;;;;5063723;28;19908;-80
2022/09/23 12:52:16;;;;;;;;;;;23.70;70.20;;;;;;5064023;28;19928;-80
2022/09/23 12:54:43;;;;;;;;;;;23.50;70.70;;;;;;5063905;28;20336;-80
2022/09/23 12:57:09;;;;;;;;;;;23.40;71.80;;;;;;5063897;28;19921;-79
2022/09/23 12:59:50;;;;;;;;;;;23.30;72.30;;;;;;5063815;28;19982;-79
2022/09/23 13:02:27;;;;;;;;;;;23.20;73.00;;;;;;5063715;28;19971;-79
2022/09/23 13:07:47;;;;;;;;;;;23.10;73.50;;;;;;5056103;28;19985;-79
2022/09/23 13:10:32;;;;;;;;;;;23.10;73.30;;;;;;5046982;28;19912;-80
2022/09/23 13:12:59;;;;;;;;;;;23.20;72.80;;;;;;5046995;28;19913;-79
2022/09/23 13:15:29;;;;;;;;;;;23.40;72.50;;;;;;5047072;28;20297;-79
2022/09/23 13:18:14;;;;;;;;;;;23.20;70.90;;;;;;5046968;28;20382;-79
2022/09/23 13:20:39;;;;;;;;;;;23.10;71.10;;;;;;5047108;28;20004;-77
2022/09/23 13:23:18;;;;;;;;;;;23.10;71.00;;;;;;5046069;28;20463;-77
2022/09/23 13:25:45;;;;;;;;;;;23.00;72.30;;;;;;5046999;28;20449;-79
2022/09/23 13:28:36;;;;;;;;;;;22.90;72.40;;;;;;5028620;28;19913;-80
2022/09/23 13:31:04;;;;;;;;;;;22.90;72.20;;;;;;5044369;28;19917;-79
2022/09/23 13:33:33;;;;;;;;;;;23.00;73.20;;;;;;5046262;28;20381;-79
2022/09/23 13:36:01;;;;;;;;;;;23.00;73.50;;;;;;5046412;28;19928;-79
2022/09/23 13:38:28;;;;;;;;;;;23.00;73.00;;;;;;5046008;28;20682;-79
2022/09/23 13:40:56;;;;;;;;;;;23.00;72.60;;;;;;5045989;28;19948;-80
2022/09/23 13:43:25;;;;;;;;;;;23.00;72.50;;;;;;5046120;28;19917;-79
2022/09/23 13:45:51;;;;;;;;;;;23.20;71.90;;;;;;5027857;28;19948;-79
2022/09/23 13:48:17;;;;;;;;;;;23.20;71.00;;;;;;5046344;28;20403;-79
2022/09/23 13:50:46;;;;;;;;;;;23.40;73.00;;;;;;5046050;28;20409;-78
2022/09/23 13:53:15;;;;;;;;;;;23.50;72.10;;;;;;5045537;28;19924;-77
2022/09/23 13:55:40;;;;;;;;;;;23.70;72.70;;;;;;5046030;28;19923;-78
2022/09/23 13:58:17;;;;;;;;;;;23.60;72.80;;;;;;5045204;28;19917;-79
2022/09/23 14:00:42;;;;;;;;;;;23.50;72.30;;;;;;5052362;28;20411;-79
2022/09/23 14:03:26;;;;;;;;;;;23.50;73.80;;;;;;5065364;28;19917;-79
2022/09/23 14:05:53;;;;;;;;;;;23.40;74.40;;;;;;5065211;28;19917;-77
2022/09/23 14:08:19;;;;;;;;;;;23.20;73.80;;;;;;5062781;28;20298;-77
2022/09/23 14:10:45;;;;;;;;;;;23.00;73.60;;;;;;5065842;28;19920;-79
2022/09/23 14:13:13;;;;;;;;;;;22.80;74.20;;;;;;5065350;28;19912;-78
2022/09/23 14:15:38;;;;;;;;;;;22.60;74.60;;;;;;5064484;28;20317;-77
2022/09/23 14:18:05;;;;;;;;;;;22.40;74.40;;;;;;5065218;28;19913;-78
2022/09/23 14:20:30;;;;;;;;;;;22.40;75.70;;;;;;5070046;28;19927;-77
2022/09/23 14:23:05;;;;;;;;;;;22.40;75.80;;;;;;5073067;28;19916;-76
2022/09/23 14:25:31;;;;;;;;;;;22.40;76.10;;;;;;5079982;28;20408;-76
2022/09/23 14:27:57;;;;;;;;;;;22.40;76.10;;;;;;5064007;28;19944;-76
2022/09/23 14:30:22;;;;;;;;;;;22.30;76.60;;;;;;5099074;27;19916;-76
2022/09/23 14:32:48;;;;;;;;;;;22.20;77.20;;;;;;5084256;28;19916;-77
2022/09/23 14:35:22;;;;;;;;;;;22.20;78.10;;;;;;5083612;28;19938;-77
2022/09/23 14:40:36;;;;;;;;;;;22.20;78.40;;;;;;5075332;28;19934;-77